sensor_id;sensor_type;location;lat;lon;timestamp;P1;durP1;ratioP1;P2;durP2;ratioP2
60372;SDS011;46216;52.220;5.134;2023-05-07T00:01:32;62.55;;;32.20;;
60372;SDS011;46216;52.220;5.134;2023-05-07T00:03:57;64.22;;;33.65;;
60372;SDS011;46216;52.220;5.134;2023-05-07T00:06:23;57.67;;;31.73;;
60372;SDS011;46216;52.220;5.134;2023-05-07T00:08:49;59.75;;;33.03;;
60372;SDS011;46216;52.220;5.134;2023-05-07T00:11:14;63.78;;;33.00;;
60372;SDS011;46216;52.220;5.134;2023-05-07T00:13:39;60.50;;;33.58;;
60372;SDS011;46216;52.220;5.134;2023-05-07T00:16:05;58.65;;;32.05;;
60372;SDS011;46216;52.220;5.134;2023-05-07T00:18:30;57.35;;;33.83;;
60372;SDS011;46216;52.220;5.134;2023-05-07T00:20:56;54.70;;;32.55;;
60372;SDS011;46216;52.220;5.134;2023-05-07T00:23:21;51.75;;;31.33;;
60372;SDS011;46216;52.220;5.134;2023-05-07T00:25:47;56.58;;;32.40;;
60372;SDS011;46216;52.220;5.134;2023-05-07T00:28:12;48.35;;;30.50;;
60372;SDS011;46216;52.220;5.134;2023-05-07T00:30:37;49.35;;;30.08;;
60372;SDS011;46216;52.220;5.134;2023-05-07T00:33:03;45.38;;;30.20;;
60372;SDS011;46216;52.220;5.134;2023-05-07T00:35:28;45.53;;;29.77;;
60372;SDS011;46216;52.220;5.134;2023-05-07T00:37:54;44.40;;;29.90;;
60372;SDS011;46216;52.220;5.134;2023-05-07T00:40:20;43.15;;;29.02;;
60372;SDS011;46216;52.220;5.134;2023-05-07T00:42:45;43.88;;;29.17;;
60372;SDS011;46216;52.220;5.134;2023-05-07T00:45:12;45.33;;;29.08;;
60372;SDS011;46216;52.220;5.134;2023-05-07T00:47:38;40.47;;;29.20;;
60372;SDS011;46216;52.220;5.134;2023-05-07T00:50:05;40.92;;;27.52;;
60372;SDS011;46216;52.220;5.134;2023-05-07T00:52:30;41.70;;;27.83;;
60372;SDS011;46216;52.220;5.134;2023-05-07T00:54:56;41.15;;;28.05;;
60372;SDS011;46216;52.220;5.134;2023-05-07T00:57:21;38.40;;;28.30;;
60372;SDS011;46216;52.220;5.134;2023-05-07T00:59:49;36.72;;;26.30;;
60372;SDS011;46216;52.220;5.134;2023-05-07T01:02:16;41.65;;;28.23;;
60372;SDS011;46216;52.220;5.134;2023-05-07T01:04:42;36.88;;;26.83;;
60372;SDS011;46216;52.220;5.134;2023-05-07T01:07:07;34.45;;;26.13;;
60372;SDS011;46216;52.220;5.134;2023-05-07T01:09:33;35.53;;;25.77;;
60372;SDS011;46216;52.220;5.134;2023-05-07T01:12:00;37.40;;;26.65;;
60372;SDS011;46216;52.220;5.134;2023-05-07T01:14:25;34.78;;;25.92;;
60372;SDS011;46216;52.220;5.134;2023-05-07T01:16:52;39.50;;;27.02;;
60372;SDS011;46216;52.220;5.134;2023-05-07T01:19:18;35.90;;;25.65;;
60372;SDS011;46216;52.220;5.134;2023-05-07T01:21:48;38.58;;;27.02;;
60372;SDS011;46216;52.220;5.134;2023-05-07T01:24:14;39.22;;;26.70;;
60372;SDS011;46216;52.220;5.134;2023-05-07T01:26:41;37.13;;;27.00;;
60372;SDS011;46216;52.220;5.134;2023-05-07T01:29:07;32.40;;;25.13;;
60372;SDS011;46216;52.220;5.134;2023-05-07T01:31:33;35.55;;;25.83;;
60372;SDS011;46216;52.220;5.134;2023-05-07T01:34:00;40.92;;;26.80;;
60372;SDS011;46216;52.220;5.134;2023-05-07T01:36:27;34.83;;;25.85;;
60372;SDS011;46216;52.220;5.134;2023-05-07T01:38:54;33.55;;;24.98;;
60372;SDS011;46216;52.220;5.134;2023-05-07T01:41:19;36.70;;;25.65;;
60372;SDS011;46216;52.220;5.134;2023-05-07T01:43:46;34.88;;;25.55;;
60372;SDS011;46216;52.220;5.134;2023-05-07T01:46:12;35.17;;;26.42;;
60372;SDS011;46216;52.220;5.134;2023-05-07T01:48:38;31.45;;;24.90;;
60372;SDS011;46216;52.220;5.134;2023-05-07T01:51:04;34.28;;;24.10;;
60372;SDS011;46216;52.220;5.134;2023-05-07T01:53:39;33.15;;;23.48;;
60372;SDS011;46216;52.220;5.134;2023-05-07T01:56:05;35.10;;;23.88;;
60372;SDS011;46216;52.220;5.134;2023-05-07T01:58:31;32.53;;;23.00;;
60372;SDS011;46216;52.220;5.134;2023-05-07T02:00:57;31.92;;;22.50;;
60372;SDS011;46216;52.220;5.134;2023-05-07T02:03:22;30.48;;;21.92;;
60372;SDS011;46216;52.220;5.134;2023-05-07T02:05:47;33.15;;;22.80;;
60372;SDS011;46216;52.220;5.134;2023-05-07T02:08:13;31.73;;;23.70;;
60372;SDS011;46216;52.220;5.134;2023-05-07T02:10:38;33.53;;;23.27;;
60372;SDS011;46216;52.220;5.134;2023-05-07T02:13:03;33.85;;;24.08;;
60372;SDS011;46216;52.220;5.134;2023-05-07T02:15:29;32.38;;;24.02;;
60372;SDS011;46216;52.220;5.134;2023-05-07T02:17:58;28.55;;;22.58;;
60372;SDS011;46216;52.220;5.134;2023-05-07T02:20:36;27.38;;;21.30;;
60372;SDS011;46216;52.220;5.134;2023-05-07T02:23:02;27.83;;;20.67;;
60372;SDS011;46216;52.220;5.134;2023-05-07T02:25:27;26.13;;;20.23;;
60372;SDS011;46216;52.220;5.134;2023-05-07T02:27:53;28.33;;;20.70;;
60372;SDS011;46216;52.220;5.134;2023-05-07T02:30:18;24.40;;;19.80;;
60372;SDS011;46216;52.220;5.134;2023-05-07T02:32:46;26.10;;;19.92;;
60372;SDS011;46216;52.220;5.134;2023-05-07T02:35:11;25.52;;;20.15;;
60372;SDS011;46216;52.220;5.134;2023-05-07T02:37:36;25.15;;;19.15;;
60372;SDS011;46216;52.220;5.134;2023-05-07T02:40:02;25.40;;;19.10;;
60372;SDS011;46216;52.220;5.134;2023-05-07T02:42:29;24.65;;;18.67;;
60372;SDS011;46216;52.220;5.134;2023-05-07T02:44:54;25.58;;;20.10;;
60372;SDS011;46216;52.220;5.134;2023-05-07T02:47:19;26.88;;;19.25;;
60372;SDS011;46216;52.220;5.134;2023-05-07T02:49:44;27.02;;;19.13;;
60372;SDS011;46216;52.220;5.134;2023-05-07T02:52:10;28.88;;;19.45;;
60372;SDS011;46216;52.220;5.134;2023-05-07T02:54:35;22.58;;;18.30;;
60372;SDS011;46216;52.220;5.134;2023-05-07T02:57:00;27.45;;;19.30;;
60372;SDS011;46216;52.220;5.134;2023-05-07T02:59:27;26.90;;;20.02;;
60372;SDS011;46216;52.220;5.134;2023-05-07T03:01:52;27.20;;;19.65;;
60372;SDS011;46216;52.220;5.134;2023-05-07T03:04:17;27.02;;;20.20;;
60372;SDS011;46216;52.220;5.134;2023-05-07T03:06:43;27.00;;;20.17;;
60372;SDS011;46216;52.220;5.134;2023-05-07T03:09:08;26.65;;;20.58;;
60372;SDS011;46216;52.220;5.134;2023-05-07T03:11:34;23.45;;;20.27;;
60372;SDS011;46216;52.220;5.134;2023-05-07T03:14:00;25.17;;;20.65;;
60372;SDS011;46216;52.220;5.134;2023-05-07T03:16:26;25.58;;;20.83;;
60372;SDS011;46216;52.220;5.134;2023-05-07T03:18:51;24.77;;;20.73;;
60372;SDS011;46216;52.220;5.134;2023-05-07T03:21:16;28.60;;;21.85;;
60372;SDS011;46216;52.220;5.134;2023-05-07T03:23:42;27.65;;;21.23;;
60372;SDS011;46216;52.220;5.134;2023-05-07T03:26:07;28.20;;;21.38;;
60372;SDS011;46216;52.220;5.134;2023-05-07T03:28:32;30.45;;;22.80;;
60372;SDS011;46216;52.220;5.134;2023-05-07T03:30:58;26.50;;;21.48;;
60372;SDS011;46216;52.220;5.134;2023-05-07T03:33:23;33.05;;;23.13;;
60372;SDS011;46216;52.220;5.134;2023-05-07T03:35:48;30.42;;;21.85;;
60372;SDS011;46216;52.220;5.134;2023-05-07T03:38:14;30.90;;;22.80;;
60372;SDS011;46216;52.220;5.134;2023-05-07T03:40:39;28.02;;;22.92;;
60372;SDS011;46216;52.220;5.134;2023-05-07T03:43:05;27.27;;;22.75;;
60372;SDS011;46216;52.220;5.134;2023-05-07T03:45:30;29.65;;;23.25;;
60372;SDS011;46216;52.220;5.134;2023-05-07T03:47:55;31.98;;;24.13;;
60372;SDS011;46216;52.220;5.134;2023-05-07T03:50:21;31.63;;;23.65;;
60372;SDS011;46216;52.220;5.134;2023-05-07T03:52:46;34.08;;;24.70;;
60372;SDS011;46216;52.220;5.134;2023-05-07T03:55:11;32.30;;;24.70;;
60372;SDS011;46216;52.220;5.134;2023-05-07T03:57:37;32.28;;;24.95;;
60372;SDS011;46216;52.220;5.134;2023-05-07T04:00:02;33.17;;;24.73;;
60372;SDS011;46216;52.220;5.134;2023-05-07T04:02:29;34.78;;;26.17;;
60372;SDS011;46216;52.220;5.134;2023-05-07T04:04:55;35.83;;;26.50;;
60372;SDS011;46216;52.220;5.134;2023-05-07T04:07:20;35.38;;;26.15;;
60372;SDS011;46216;52.220;5.134;2023-05-07T04:09:45;35.00;;;27.38;;
60372;SDS011;46216;52.220;5.134;2023-05-07T04:12:11;34.50;;;26.83;;
60372;SDS011;46216;52.220;5.134;2023-05-07T04:14:36;39.85;;;26.83;;
60372;SDS011;46216;52.220;5.134;2023-05-07T04:17:01;30.80;;;25.48;;
60372;SDS011;46216;52.220;5.134;2023-05-07T04:19:27;36.25;;;27.58;;
60372;SDS011;46216;52.220;5.134;2023-05-07T04:21:53;36.53;;;28.70;;
60372;SDS011;46216;52.220;5.134;2023-05-07T04:24:18;40.08;;;28.95;;
60372;SDS011;46216;52.220;5.134;2023-05-07T04:26:43;37.90;;;28.90;;
60372;SDS011;46216;52.220;5.134;2023-05-07T04:29:09;38.30;;;28.58;;
60372;SDS011;46216;52.220;5.134;2023-05-07T04:31:34;38.60;;;28.58;;
60372;SDS011;46216;52.220;5.134;2023-05-07T04:33:59;38.83;;;29.33;;
60372;SDS011;46216;52.220;5.134;2023-05-07T04:36:25;39.92;;;28.95;;
60372;SDS011;46216;52.220;5.134;2023-05-07T04:38:52;36.55;;;27.98;;
60372;SDS011;46216;52.220;5.134;2023-05-07T04:41:18;35.90;;;29.02;;
60372;SDS011;46216;52.220;5.134;2023-05-07T04:43:43;37.90;;;28.65;;
60372;SDS011;46216;52.220;5.134;2023-05-07T04:46:09;36.58;;;27.60;;
60372;SDS011;46216;52.220;5.134;2023-05-07T04:48:34;33.63;;;27.17;;
60372;SDS011;46216;52.220;5.134;2023-05-07T04:50:59;36.13;;;27.77;;
60372;SDS011;46216;52.220;5.134;2023-05-07T04:53:25;31.92;;;26.48;;
60372;SDS011;46216;52.220;5.134;2023-05-07T04:55:54;37.53;;;27.60;;
60372;SDS011;46216;52.220;5.134;2023-05-07T04:58:21;34.20;;;26.17;;
60372;SDS011;46216;52.220;5.134;2023-05-07T05:00:46;31.67;;;26.25;;
60372;SDS011;46216;52.220;5.134;2023-05-07T05:03:11;33.50;;;25.25;;
60372;SDS011;46216;52.220;5.134;2023-05-07T05:05:37;30.38;;;24.35;;
60372;SDS011;46216;52.220;5.134;2023-05-07T05:08:02;31.13;;;23.90;;
60372;SDS011;46216;52.220;5.134;2023-05-07T05:10:27;29.80;;;23.67;;
60372;SDS011;46216;52.220;5.134;2023-05-07T05:12:53;27.60;;;23.88;;
60372;SDS011;46216;52.220;5.134;2023-05-07T05:15:18;31.63;;;23.55;;
60372;SDS011;46216;52.220;5.134;2023-05-07T05:17:43;28.40;;;22.17;;
60372;SDS011;46216;52.220;5.134;2023-05-07T05:20:09;25.65;;;21.75;;
60372;SDS011;46216;52.220;5.134;2023-05-07T05:22:37;25.70;;;21.55;;
60372;SDS011;46216;52.220;5.134;2023-05-07T05:25:03;26.85;;;22.05;;
60372;SDS011;46216;52.220;5.134;2023-05-07T05:27:29;24.58;;;21.77;;
60372;SDS011;46216;52.220;5.134;2023-05-07T05:29:54;23.02;;;20.35;;
60372;SDS011;46216;52.220;5.134;2023-05-07T05:32:20;24.70;;;21.05;;
60372;SDS011;46216;52.220;5.134;2023-05-07T05:34:45;26.70;;;20.23;;
60372;SDS011;46216;52.220;5.134;2023-05-07T05:37:10;24.05;;;21.00;;
60372;SDS011;46216;52.220;5.134;2023-05-07T05:39:36;23.77;;;20.73;;
60372;SDS011;46216;52.220;5.134;2023-05-07T05:42:01;23.70;;;19.85;;
60372;SDS011;46216;52.220;5.134;2023-05-07T05:44:27;21.98;;;19.52;;
60372;SDS011;46216;52.220;5.134;2023-05-07T05:46:52;21.73;;;19.45;;
60372;SDS011;46216;52.220;5.134;2023-05-07T05:49:20;24.88;;;20.85;;
60372;SDS011;46216;52.220;5.134;2023-05-07T05:51:45;24.00;;;19.92;;
60372;SDS011;46216;52.220;5.134;2023-05-07T05:54:11;24.70;;;20.70;;
60372;SDS011;46216;52.220;5.134;2023-05-07T05:56:36;21.80;;;19.02;;
60372;SDS011;46216;52.220;5.134;2023-05-07T05:59:02;23.15;;;20.48;;
60372;SDS011;46216;52.220;5.134;2023-05-07T06:01:27;23.42;;;19.42;;
60372;SDS011;46216;52.220;5.134;2023-05-07T06:03:53;22.10;;;19.33;;
60372;SDS011;46216;52.220;5.134;2023-05-07T06:06:18;22.20;;;19.40;;
60372;SDS011;46216;52.220;5.134;2023-05-07T06:08:43;21.85;;;19.48;;
60372;SDS011;46216;52.220;5.134;2023-05-07T06:11:09;23.45;;;19.67;;
60372;SDS011;46216;52.220;5.134;2023-05-07T06:13:34;23.73;;;20.38;;
60372;SDS011;46216;52.220;5.134;2023-05-07T06:15:59;22.92;;;20.02;;
60372;SDS011;46216;52.220;5.134;2023-05-07T06:18:25;24.50;;;19.65;;
60372;SDS011;46216;52.220;5.134;2023-05-07T06:20:51;22.92;;;20.30;;
60372;SDS011;46216;52.220;5.134;2023-05-07T06:23:16;22.80;;;20.00;;
60372;SDS011;46216;52.220;5.134;2023-05-07T06:25:42;23.92;;;20.45;;
60372;SDS011;46216;52.220;5.134;2023-05-07T06:28:10;26.77;;;20.88;;
60372;SDS011;46216;52.220;5.134;2023-05-07T06:30:36;26.33;;;21.23;;
60372;SDS011;46216;52.220;5.134;2023-05-07T06:33:01;28.80;;;22.20;;
60372;SDS011;46216;52.220;5.134;2023-05-07T06:35:26;25.83;;;21.17;;
60372;SDS011;46216;52.220;5.134;2023-05-07T06:37:52;26.05;;;22.45;;
60372;SDS011;46216;52.220;5.134;2023-05-07T06:40:17;26.90;;;22.05;;
60372;SDS011;46216;52.220;5.134;2023-05-07T06:42:42;30.77;;;24.17;;
60372;SDS011;46216;52.220;5.134;2023-05-07T06:45:08;29.73;;;22.58;;
60372;SDS011;46216;52.220;5.134;2023-05-07T06:47:34;28.75;;;24.00;;
60372;SDS011;46216;52.220;5.134;2023-05-07T06:49:59;30.73;;;23.80;;
60372;SDS011;46216;52.220;5.134;2023-05-07T06:52:24;31.48;;;24.23;;
60372;SDS011;46216;52.220;5.134;2023-05-07T06:54:49;32.25;;;24.75;;
60372;SDS011;46216;52.220;5.134;2023-05-07T06:57:15;32.05;;;24.20;;
60372;SDS011;46216;52.220;5.134;2023-05-07T06:59:40;30.08;;;24.88;;
60372;SDS011;46216;52.220;5.134;2023-05-07T07:02:05;31.85;;;24.88;;
60372;SDS011;46216;52.220;5.134;2023-05-07T07:04:31;34.90;;;25.15;;
60372;SDS011;46216;52.220;5.134;2023-05-07T07:06:56;34.15;;;25.58;;
60372;SDS011;46216;52.220;5.134;2023-05-07T07:09:21;35.15;;;25.08;;
60372;SDS011;46216;52.220;5.134;2023-05-07T07:11:47;31.42;;;24.92;;
60372;SDS011;46216;52.220;5.134;2023-05-07T07:14:12;32.80;;;25.95;;
60372;SDS011;46216;52.220;5.134;2023-05-07T07:16:38;34.58;;;25.92;;
60372;SDS011;46216;52.220;5.134;2023-05-07T07:19:03;33.53;;;27.10;;
60372;SDS011;46216;52.220;5.134;2023-05-07T07:21:28;35.50;;;26.38;;
60372;SDS011;46216;52.220;5.134;2023-05-07T07:23:54;35.28;;;27.77;;
60372;SDS011;46216;52.220;5.134;2023-05-07T07:26:19;32.80;;;26.75;;
60372;SDS011;46216;52.220;5.134;2023-05-07T07:28:44;33.60;;;26.27;;
60372;SDS011;46216;52.220;5.134;2023-05-07T07:31:10;31.08;;;26.85;;
60372;SDS011;46216;52.220;5.134;2023-05-07T07:33:37;32.17;;;26.77;;
60372;SDS011;46216;52.220;5.134;2023-05-07T07:36:02;32.33;;;27.08;;
60372;SDS011;46216;52.220;5.134;2023-05-07T07:38:27;38.53;;;29.73;;
60372;SDS011;46216;52.220;5.134;2023-05-07T07:40:53;35.72;;;27.00;;
60372;SDS011;46216;52.220;5.134;2023-05-07T07:43:18;32.28;;;27.48;;
60372;SDS011;46216;52.220;5.134;2023-05-07T07:45:43;33.97;;;26.77;;
60372;SDS011;46216;52.220;5.134;2023-05-07T07:48:09;29.42;;;24.67;;
60372;SDS011;46216;52.220;5.134;2023-05-07T07:50:35;28.50;;;24.98;;
60372;SDS011;46216;52.220;5.134;2023-05-07T07:53:01;27.90;;;24.83;;
60372;SDS011;46216;52.220;5.134;2023-05-07T07:55:26;27.02;;;24.08;;
60372;SDS011;46216;52.220;5.134;2023-05-07T07:57:52;28.98;;;24.88;;
60372;SDS011;46216;52.220;5.134;2023-05-07T08:00:17;27.10;;;24.27;;
60372;SDS011;46216;52.220;5.134;2023-05-07T08:02:43;29.60;;;24.83;;
60372;SDS011;46216;52.220;5.134;2023-05-07T08:05:08;26.48;;;23.23;;
60372;SDS011;46216;52.220;5.134;2023-05-07T08:07:33;25.45;;;22.67;;
60372;SDS011;46216;52.220;5.134;2023-05-07T08:09:59;26.23;;;23.42;;
60372;SDS011;46216;52.220;5.134;2023-05-07T08:12:24;27.30;;;24.33;;
60372;SDS011;46216;52.220;5.134;2023-05-07T08:14:50;25.80;;;23.08;;
60372;SDS011;46216;52.220;5.134;2023-05-07T08:17:15;28.33;;;25.23;;
60372;SDS011;46216;52.220;5.134;2023-05-07T08:19:41;26.10;;;23.30;;
60372;SDS011;46216;52.220;5.134;2023-05-07T08:22:08;30.63;;;25.67;;
60372;SDS011;46216;52.220;5.134;2023-05-07T08:24:34;25.80;;;23.17;;
60372;SDS011;46216;52.220;5.134;2023-05-07T08:26:59;27.42;;;23.95;;
60372;SDS011;46216;52.220;5.134;2023-05-07T08:29:25;25.67;;;22.98;;
60372;SDS011;46216;52.220;5.134;2023-05-07T08:31:50;24.27;;;21.77;;
60372;SDS011;46216;52.220;5.134;2023-05-07T08:34:15;26.90;;;24.13;;
60372;SDS011;46216;52.220;5.134;2023-05-07T08:36:41;27.40;;;23.80;;
60372;SDS011;46216;52.220;5.134;2023-05-07T08:39:06;27.02;;;24.23;;
60372;SDS011;46216;52.220;5.134;2023-05-07T08:41:32;28.42;;;25.45;;
60372;SDS011;46216;52.220;5.134;2023-05-07T08:43:58;30.50;;;26.52;;
60372;SDS011;46216;52.220;5.134;2023-05-07T08:46:27;29.02;;;25.65;;
60372;SDS011;46216;52.220;5.134;2023-05-07T08:48:56;27.83;;;25.00;;
60372;SDS011;46216;52.220;5.134;2023-05-07T08:51:22;30.05;;;25.92;;
60372;SDS011;46216;52.220;5.134;2023-05-07T08:53:48;28.00;;;25.17;;
60372;SDS011;46216;52.220;5.134;2023-05-07T08:56:15;27.63;;;24.20;;
60372;SDS011;46216;52.220;5.134;2023-05-07T08:58:42;29.05;;;23.67;;
60372;SDS011;46216;52.220;5.134;2023-05-07T09:01:08;25.48;;;22.75;;
60372;SDS011;46216;52.220;5.134;2023-05-07T09:03:37;22.45;;;20.13;;
60372;SDS011;46216;52.220;5.134;2023-05-07T09:06:04;23.40;;;21.00;;
60372;SDS011;46216;52.220;5.134;2023-05-07T09:08:29;22.42;;;18.65;;
60372;SDS011;46216;52.220;5.134;2023-05-07T09:10:55;21.90;;;19.70;;
60372;SDS011;46216;52.220;5.134;2023-05-07T09:13:20;20.25;;;18.27;;
60372;SDS011;46216;52.220;5.134;2023-05-07T09:15:46;19.48;;;17.45;;
60372;SDS011;46216;52.220;5.134;2023-05-07T09:18:15;17.70;;;15.75;;
60372;SDS011;46216;52.220;5.134;2023-05-07T09:20:41;17.77;;;16.17;;
60372;SDS011;46216;52.220;5.134;2023-05-07T09:23:06;17.90;;;16.00;;
60372;SDS011;46216;52.220;5.134;2023-05-07T09:25:33;17.65;;;15.75;;
60372;SDS011;46216;52.220;5.134;2023-05-07T09:28:00;17.40;;;15.70;;
60372;SDS011;46216;52.220;5.134;2023-05-07T09:30:29;16.33;;;14.63;;
60372;SDS011;46216;52.220;5.134;2023-05-07T09:32:55;16.45;;;14.75;;
60372;SDS011;46216;52.220;5.134;2023-05-07T09:35:24;17.10;;;15.45;;
60372;SDS011;46216;52.220;5.134;2023-05-07T09:37:52;16.67;;;15.05;;
60372;SDS011;46216;52.220;5.134;2023-05-07T09:40:22;15.48;;;13.98;;
60372;SDS011;46216;52.220;5.134;2023-05-07T09:42:48;16.17;;;14.43;;
60372;SDS011;46216;52.220;5.134;2023-05-07T09:45:14;15.50;;;14.00;;
60372;SDS011;46216;52.220;5.134;2023-05-07T09:47:41;12.48;;;11.20;;
60372;SDS011;46216;52.220;5.134;2023-05-07T09:50:10;12.55;;;11.25;;
60372;SDS011;46216;52.220;5.134;2023-05-07T09:52:38;12.20;;;11.00;;
60372;SDS011;46216;52.220;5.134;2023-05-07T09:55:05;12.32;;;11.05;;
60372;SDS011;46216;52.220;5.134;2023-05-07T09:57:32;13.13;;;11.85;;
60372;SDS011;46216;52.220;5.134;2023-05-07T09:59:59;12.57;;;11.27;;
60372;SDS011;46216;52.220;5.134;2023-05-07T10:02:29;14.52;;;13.02;;
60372;SDS011;46216;52.220;5.134;2023-05-07T10:04:56;14.02;;;12.65;;
60372;SDS011;46216;52.220;5.134;2023-05-07T10:07:23;14.15;;;12.75;;
60372;SDS011;46216;52.220;5.134;2023-05-07T10:09:50;13.50;;;12.00;;
60372;SDS011;46216;52.220;5.134;2023-05-07T10:12:15;14.13;;;12.82;;
60372;SDS011;46216;52.220;5.134;2023-05-07T10:14:42;14.52;;;12.93;;
60372;SDS011;46216;52.220;5.134;2023-05-07T10:17:08;14.32;;;11.95;;
60372;SDS011;46216;52.220;5.134;2023-05-07T10:19:36;13.05;;;11.65;;
60372;SDS011;46216;52.220;5.134;2023-05-07T10:22:04;12.40;;;11.30;;
60372;SDS011;46216;52.220;5.134;2023-05-07T10:24:36;10.13;;;9.13;;
60372;SDS011;46216;52.220;5.134;2023-05-07T10:27:03;10.05;;;9.10;;
60372;SDS011;46216;52.220;5.134;2023-05-07T10:35:16;10.00;;;9.00;;
60372;SDS011;46216;52.220;5.134;2023-05-07T10:37:44;10.45;;;8.82;;
60372;SDS011;46216;52.220;5.134;2023-05-07T10:40:10;12.40;;;10.23;;
60372;SDS011;46216;52.220;5.134;2023-05-07T10:42:36;12.25;;;10.95;;
60372;SDS011;46216;52.220;5.134;2023-05-07T10:45:12;11.52;;;10.43;;
60372;SDS011;46216;52.220;5.134;2023-05-07T10:48:05;9.75;;;8.77;;
60372;SDS011;46216;52.220;5.134;2023-05-07T10:50:42;9.88;;;8.70;;
60372;SDS011;46216;52.220;5.134;2023-05-07T10:55:46;10.55;;;8.88;;
60372;SDS011;46216;52.220;5.134;2023-05-07T10:58:29;10.70;;;9.68;;
60372;SDS011;46216;52.220;5.134;2023-05-07T11:00:58;11.20;;;8.73;;
60372;SDS011;46216;52.220;5.134;2023-05-07T11:03:27;9.23;;;8.18;;
60372;SDS011;46216;52.220;5.134;2023-05-07T11:06:09;7.75;;;6.95;;
60372;SDS011;46216;52.220;5.134;2023-05-07T11:08:59;8.73;;;7.80;;
60372;SDS011;46216;52.220;5.134;2023-05-07T11:17:05;8.20;;;6.38;;
60372;SDS011;46216;52.220;5.134;2023-05-07T11:22:35;7.03;;;4.85;;
60372;SDS011;46216;52.220;5.134;2023-05-07T11:25:05;7.47;;;4.80;;
60372;SDS011;46216;52.220;5.134;2023-05-07T11:27:31;5.53;;;3.78;;
60372;SDS011;46216;52.220;5.134;2023-05-07T11:29:57;4.57;;;3.05;;
60372;SDS011;46216;52.220;5.134;2023-05-07T11:32:23;7.07;;;3.03;;
60372;SDS011;46216;52.220;5.134;2023-05-07T11:34:52;6.18;;;3.10;;
60372;SDS011;46216;52.220;5.134;2023-05-07T11:37:18;5.25;;;3.45;;
60372;SDS011;46216;52.220;5.134;2023-05-07T11:39:45;4.70;;;3.47;;
60372;SDS011;46216;52.220;5.134;2023-05-07T11:44:55;5.75;;;3.88;;
60372;SDS011;46216;52.220;5.134;2023-05-07T11:47:20;4.47;;;3.63;;
60372;SDS011;46216;52.220;5.134;2023-05-07T11:49:47;5.63;;;3.50;;
60372;SDS011;46216;52.220;5.134;2023-05-07T11:52:13;5.60;;;3.33;;
60372;SDS011;46216;52.220;5.134;2023-05-07T11:54:39;6.13;;;3.30;;
60372;SDS011;46216;52.220;5.134;2023-05-07T11:57:04;4.68;;;3.15;;
60372;SDS011;46216;52.220;5.134;2023-05-07T11:59:30;5.32;;;3.15;;
60372;SDS011;46216;52.220;5.134;2023-05-07T12:02:03;6.00;;;2.97;;
60372;SDS011;46216;52.220;5.134;2023-05-07T12:04:29;5.50;;;2.92;;
60372;SDS011;46216;52.220;5.134;2023-05-07T12:06:55;4.70;;;3.60;;
60372;SDS011;46216;52.220;5.134;2023-05-07T12:09:20;4.90;;;2.95;;
60372;SDS011;46216;52.220;5.134;2023-05-07T12:11:46;4.03;;;2.72;;
60372;SDS011;46216;52.220;5.134;2023-05-07T12:14:12;3.85;;;2.70;;
60372;SDS011;46216;52.220;5.134;2023-05-07T12:16:38;4.68;;;2.33;;
60372;SDS011;46216;52.220;5.134;2023-05-07T12:19:05;3.97;;;2.47;;
60372;SDS011;46216;52.220;5.134;2023-05-07T12:21:33;3.70;;;2.20;;
60372;SDS011;46216;52.220;5.134;2023-05-07T12:23:58;6.15;;;2.22;;
60372;SDS011;46216;52.220;5.134;2023-05-07T12:26:24;4.95;;;2.80;;
60372;SDS011;46216;52.220;5.134;2023-05-07T12:28:49;5.40;;;2.10;;
60372;SDS011;46216;52.220;5.134;2023-05-07T12:31:15;6.47;;;2.28;;
60372;SDS011;46216;52.220;5.134;2023-05-07T12:33:41;4.07;;;2.40;;
60372;SDS011;46216;52.220;5.134;2023-05-07T12:36:07;4.43;;;2.22;;
60372;SDS011;46216;52.220;5.134;2023-05-07T12:38:36;4.20;;;2.65;;
60372;SDS011;46216;52.220;5.134;2023-05-07T12:41:03;3.13;;;2.30;;
60372;SDS011;46216;52.220;5.134;2023-05-07T12:43:29;4.57;;;2.58;;
60372;SDS011;46216;52.220;5.134;2023-05-07T12:45:55;3.75;;;2.38;;
60372;SDS011;46216;52.220;5.134;2023-05-07T12:48:25;7.22;;;2.60;;
60372;SDS011;46216;52.220;5.134;2023-05-07T12:50:55;5.65;;;3.05;;
60372;SDS011;46216;52.220;5.134;2023-05-07T12:53:22;6.53;;;3.10;;
60372;SDS011;46216;52.220;5.134;2023-05-07T12:55:50;6.00;;;3.38;;
60372;SDS011;46216;52.220;5.134;2023-05-07T12:58:17;4.82;;;3.00;;
60372;SDS011;46216;52.220;5.134;2023-05-07T13:00:44;4.60;;;3.17;;
60372;SDS011;46216;52.220;5.134;2023-05-07T13:03:15;6.53;;;3.70;;
60372;SDS011;46216;52.220;5.134;2023-05-07T13:05:46;6.72;;;3.85;;
60372;SDS011;46216;52.220;5.134;2023-05-07T13:08:12;5.35;;;3.60;;
60372;SDS011;46216;52.220;5.134;2023-05-07T13:10:37;5.90;;;3.83;;
60372;SDS011;46216;52.220;5.134;2023-05-07T13:13:02;6.63;;;3.80;;
60372;SDS011;46216;52.220;5.134;2023-05-07T13:15:28;4.55;;;3.70;;
60372;SDS011;46216;52.220;5.134;2023-05-07T13:17:53;5.72;;;3.92;;
60372;SDS011;46216;52.220;5.134;2023-05-07T13:20:19;5.90;;;3.95;;
60372;SDS011;46216;52.220;5.134;2023-05-07T13:22:44;5.43;;;3.28;;
60372;SDS011;46216;52.220;5.134;2023-05-07T13:25:09;5.03;;;3.80;;
60372;SDS011;46216;52.220;5.134;2023-05-07T13:27:34;6.22;;;3.78;;
60372;SDS011;46216;52.220;5.134;2023-05-07T13:30:02;4.78;;;3.67;;
60372;SDS011;46216;52.220;5.134;2023-05-07T13:32:28;7.13;;;3.75;;
60372;SDS011;46216;52.220;5.134;2023-05-07T13:34:54;5.70;;;4.40;;
60372;SDS011;46216;52.220;5.134;2023-05-07T13:37:20;4.97;;;3.45;;
60372;SDS011;46216;52.220;5.134;2023-05-07T13:39:46;7.03;;;4.68;;
60372;SDS011;46216;52.220;5.134;2023-05-07T13:42:11;8.95;;;5.10;;
60372;SDS011;46216;52.220;5.134;2023-05-07T13:44:36;8.00;;;5.30;;
60372;SDS011;46216;52.220;5.134;2023-05-07T13:47:01;7.10;;;5.38;;
60372;SDS011;46216;52.220;5.134;2023-05-07T13:49:27;7.32;;;5.75;;
60372;SDS011;46216;52.220;5.134;2023-05-07T13:51:52;6.95;;;5.18;;
60372;SDS011;46216;52.220;5.134;2023-05-07T13:54:17;7.50;;;6.00;;
60372;SDS011;46216;52.220;5.134;2023-05-07T13:56:43;7.70;;;5.82;;
60372;SDS011;46216;52.220;5.134;2023-05-07T13:59:08;9.52;;;6.68;;
60372;SDS011;46216;52.220;5.134;2023-05-07T14:01:33;6.85;;;6.15;;
60372;SDS011;46216;52.220;5.134;2023-05-07T14:03:58;9.45;;;7.20;;
60372;SDS011;46216;52.220;5.134;2023-05-07T14:06:24;9.80;;;7.90;;
60372;SDS011;46216;52.220;5.134;2023-05-07T14:08:50;8.80;;;7.90;;
60372;SDS011;46216;52.220;5.134;2023-05-07T14:11:15;10.23;;;7.80;;
60372;SDS011;46216;52.220;5.134;2023-05-07T14:13:41;8.50;;;7.10;;
60372;SDS011;46216;52.220;5.134;2023-05-07T14:16:06;10.55;;;7.60;;
60372;SDS011;46216;52.220;5.134;2023-05-07T14:18:34;10.50;;;8.48;;
60372;SDS011;46216;52.220;5.134;2023-05-07T14:21:01;9.35;;;7.82;;
60372;SDS011;46216;52.220;5.134;2023-05-07T14:23:27;7.95;;;6.65;;
60372;SDS011;46216;52.220;5.134;2023-05-07T14:25:52;7.88;;;6.40;;
60372;SDS011;46216;52.220;5.134;2023-05-07T14:28:18;9.50;;;6.85;;
60372;SDS011;46216;52.220;5.134;2023-05-07T14:30:44;9.98;;;7.15;;
60372;SDS011;46216;52.220;5.134;2023-05-07T14:33:09;7.93;;;6.50;;
60372;SDS011;46216;52.220;5.134;2023-05-07T14:35:35;11.50;;;9.25;;
60372;SDS011;46216;52.220;5.134;2023-05-07T14:38:00;14.05;;;10.27;;
60372;SDS011;46216;52.220;5.134;2023-05-07T14:40:25;16.08;;;9.52;;
60372;SDS011;46216;52.220;5.134;2023-05-07T14:42:51;13.70;;;6.95;;